sensor_id;sensor_type;location;lat;lon;timestamp;P1;durP1;ratioP1;P2;durP2;ratioP2
46493;SDS011;53214;49.314;6.280;2024-03-08T00:01:48;14.15;;;10.85;;
46493;SDS011;53214;49.314;6.280;2024-03-08T00:04:15;15.38;;;11.55;;
46493;SDS011;53214;49.314;6.280;2024-03-08T00:06:42;15.15;;;11.73;;
46493;SDS011;53214;49.314;6.280;2024-03-08T00:09:12;14.25;;;11.25;;
46493;SDS011;53214;49.314;6.280;2024-03-08T00:11:39;16.08;;;11.40;;
46493;SDS011;53214;49.314;6.280;2024-03-08T00:14:05;14.05;;;10.60;;
46493;SDS011;53214;49.314;6.280;2024-03-08T00:16:33;16.08;;;12.05;;
46493;SDS011;53214;49.314;6.280;2024-03-08T00:19:01;15.48;;;11.40;;
46493;SDS011;53214;49.314;6.280;2024-03-08T00:21:28;16.90;;;11.60;;
46493;SDS011;53214;49.314;6.280;2024-03-08T00:23:55;12.77;;;10.77;;
46493;SDS011;53214;49.314;6.280;2024-03-08T00:26:22;14.60;;;11.23;;
46493;SDS011;53214;49.314;6.280;2024-03-08T00:28:49;15.77;;;11.38;;
46493;SDS011;53214;49.314;6.280;2024-03-08T00:31:15;15.38;;;11.57;;
46493;SDS011;53214;49.314;6.280;2024-03-08T00:33:43;16.35;;;11.35;;
46493;SDS011;53214;49.314;6.280;2024-03-08T00:36:10;14.38;;;11.10;;
46493;SDS011;53214;49.314;6.280;2024-03-08T00:38:37;16.33;;;11.30;;
46493;SDS011;53214;49.314;6.280;2024-03-08T00:41:04;18.23;;;11.57;;
46493;SDS011;53214;49.314;6.280;2024-03-08T00:43:30;13.77;;;11.02;;
46493;SDS011;53214;49.314;6.280;2024-03-08T00:45:57;18.08;;;11.80;;
46493;SDS011;53214;49.314;6.280;2024-03-08T00:48:24;15.45;;;11.40;;
46493;SDS011;53214;49.314;6.280;2024-03-08T00:50:51;16.17;;;11.38;;
46493;SDS011;53214;49.314;6.280;2024-03-08T00:53:18;14.90;;;10.48;;
46493;SDS011;53214;49.314;6.280;2024-03-08T00:55:44;16.45;;;11.73;;
46493;SDS011;53214;49.314;6.280;2024-03-08T00:58:13;16.05;;;11.35;;
46493;SDS011;53214;49.314;6.280;2024-03-08T01:00:40;16.23;;;11.55;;
46493;SDS011;53214;49.314;6.280;2024-03-08T01:03:07;14.88;;;10.93;;
46493;SDS011;53214;49.314;6.280;2024-03-08T01:05:33;14.90;;;11.18;;
46493;SDS011;53214;49.314;6.280;2024-03-08T01:08:01;15.73;;;10.75;;
46493;SDS011;53214;49.314;6.280;2024-03-08T01:10:29;18.63;;;12.30;;
46493;SDS011;53214;49.314;6.280;2024-03-08T01:12:56;14.98;;;11.10;;
46493;SDS011;53214;49.314;6.280;2024-03-08T01:15:25;14.55;;;10.90;;
46493;SDS011;53214;49.314;6.280;2024-03-08T01:17:52;14.48;;;10.75;;
46493;SDS011;53214;49.314;6.280;2024-03-08T01:20:20;13.15;;;10.20;;
46493;SDS011;53214;49.314;6.280;2024-03-08T01:22:47;15.60;;;11.15;;
46493;SDS011;53214;49.314;6.280;2024-03-08T01:25:14;15.05;;;10.27;;
46493;SDS011;53214;49.314;6.280;2024-03-08T01:27:41;12.85;;;9.90;;
46493;SDS011;53214;49.314;6.280;2024-03-08T01:30:07;15.10;;;10.75;;
46493;SDS011;53214;49.314;6.280;2024-03-08T01:32:36;14.05;;;11.00;;
46493;SDS011;53214;49.314;6.280;2024-03-08T01:35:03;15.25;;;10.98;;
46493;SDS011;53214;49.314;6.280;2024-03-08T01:37:30;13.27;;;10.07;;
46493;SDS011;53214;49.314;6.280;2024-03-08T01:39:56;12.52;;;10.13;;
46493;SDS011;53214;49.314;6.280;2024-03-08T01:42:23;13.38;;;10.52;;
46493;SDS011;53214;49.314;6.280;2024-03-08T01:44:50;13.48;;;10.02;;
46493;SDS011;53214;49.314;6.280;2024-03-08T01:47:17;14.68;;;10.85;;
46493;SDS011;53214;49.314;6.280;2024-03-08T01:49:49;13.95;;;10.65;;
46493;SDS011;53214;49.314;6.280;2024-03-08T01:52:17;13.35;;;10.15;;
46493;SDS011;53214;49.314;6.280;2024-03-08T01:54:48;14.80;;;10.38;;
46493;SDS011;53214;49.314;6.280;2024-03-08T01:57:15;15.30;;;10.80;;
46493;SDS011;53214;49.314;6.280;2024-03-08T01:59:42;15.45;;;10.50;;
46493;SDS011;53214;49.314;6.280;2024-03-08T02:02:09;13.98;;;10.52;;
46493;SDS011;53214;49.314;6.280;2024-03-08T02:04:41;15.13;;;10.52;;
46493;SDS011;53214;49.314;6.280;2024-03-08T02:07:08;15.07;;;10.85;;
46493;SDS011;53214;49.314;6.280;2024-03-08T02:09:36;14.55;;;10.75;;
46493;SDS011;53214;49.314;6.280;2024-03-08T02:12:03;14.27;;;10.68;;
46493;SDS011;53214;49.314;6.280;2024-03-08T02:14:30;15.95;;;11.07;;
46493;SDS011;53214;49.314;6.280;2024-03-08T02:17:01;13.48;;;10.85;;
46493;SDS011;53214;49.314;6.280;2024-03-08T02:19:28;14.43;;;11.30;;
46493;SDS011;53214;49.314;6.280;2024-03-08T02:21:55;14.55;;;10.90;;
46493;SDS011;53214;49.314;6.280;2024-03-08T02:24:22;14.40;;;10.57;;
46493;SDS011;53214;49.314;6.280;2024-03-08T02:26:50;14.75;;;11.38;;
46493;SDS011;53214;49.314;6.280;2024-03-08T02:29:16;15.50;;;11.20;;
46493;SDS011;53214;49.314;6.280;2024-03-08T02:31:44;14.20;;;11.05;;
46493;SDS011;53214;49.314;6.280;2024-03-08T02:34:11;16.13;;;11.38;;
46493;SDS011;53214;49.314;6.280;2024-03-08T02:36:37;14.20;;;10.15;;
46493;SDS011;53214;49.314;6.280;2024-03-08T02:39:04;15.88;;;10.50;;
46493;SDS011;53214;49.314;6.280;2024-03-08T02:41:32;14.07;;;10.60;;
46493;SDS011;53214;49.314;6.280;2024-03-08T02:43:58;15.25;;;10.82;;
46493;SDS011;53214;49.314;6.280;2024-03-08T02:46:26;12.98;;;10.75;;
46493;SDS011;53214;49.314;6.280;2024-03-08T02:48:53;15.93;;;11.30;;
46493;SDS011;53214;49.314;6.280;2024-03-08T02:51:19;15.55;;;11.23;;
46493;SDS011;53214;49.314;6.280;2024-03-08T02:53:47;14.75;;;10.93;;
46493;SDS011;53214;49.314;6.280;2024-03-08T02:56:15;15.65;;;10.95;;
46493;SDS011;53214;49.314;6.280;2024-03-08T02:58:43;14.88;;;11.00;;
46493;SDS011;53214;49.314;6.280;2024-03-08T03:01:15;13.57;;;10.68;;
46493;SDS011;53214;49.314;6.280;2024-03-08T03:03:42;14.52;;;10.77;;
46493;SDS011;53214;49.314;6.280;2024-03-08T03:06:09;14.18;;;11.25;;
46493;SDS011;53214;49.314;6.280;2024-03-08T03:08:36;13.77;;;10.77;;
46493;SDS011;53214;49.314;6.280;2024-03-08T03:11:03;15.25;;;10.88;;
46493;SDS011;53214;49.314;6.280;2024-03-08T03:13:30;14.25;;;10.35;;
46493;SDS011;53214;49.314;6.280;2024-03-08T03:15:56;16.92;;;11.13;;
46493;SDS011;53214;49.314;6.280;2024-03-08T03:18:24;15.55;;;10.85;;
46493;SDS011;53214;49.314;6.280;2024-03-08T03:20:52;16.17;;;10.93;;
46493;SDS011;53214;49.314;6.280;2024-03-08T03:23:19;14.50;;;10.80;;
46493;SDS011;53214;49.314;6.280;2024-03-08T03:25:47;14.80;;;10.88;;
46493;SDS011;53214;49.314;6.280;2024-03-08T03:28:14;15.50;;;10.68;;
46493;SDS011;53214;49.314;6.280;2024-03-08T03:30:46;15.70;;;11.35;;
46493;SDS011;53214;49.314;6.280;2024-03-08T03:33:13;15.93;;;10.93;;
46493;SDS011;53214;49.314;6.280;2024-03-08T03:35:41;15.23;;;11.07;;
46493;SDS011;53214;49.314;6.280;2024-03-08T03:38:12;12.90;;;10.18;;
46493;SDS011;53214;49.314;6.280;2024-03-08T03:40:40;15.30;;;11.68;;
46493;SDS011;53214;49.314;6.280;2024-03-08T03:43:07;16.10;;;11.43;;
46493;SDS011;53214;49.314;6.280;2024-03-08T03:45:37;13.88;;;10.70;;
46493;SDS011;53214;49.314;6.280;2024-03-08T03:48:07;15.43;;;10.88;;
46493;SDS011;53214;49.314;6.280;2024-03-08T03:50:38;15.10;;;10.80;;
46493;SDS011;53214;49.314;6.280;2024-03-08T03:53:05;13.07;;;10.52;;
46493;SDS011;53214;49.314;6.280;2024-03-08T03:55:37;14.32;;;10.57;;
46493;SDS011;53214;49.314;6.280;2024-03-08T03:58:06;16.90;;;11.52;;
46493;SDS011;53214;49.314;6.280;2024-03-08T04:00:32;15.70;;;11.35;;
46493;SDS011;53214;49.314;6.280;2024-03-08T04:02:59;15.68;;;11.45;;
46493;SDS011;53214;49.314;6.280;2024-03-08T04:05:27;14.02;;;10.70;;
46493;SDS011;53214;49.314;6.280;2024-03-08T04:07:54;14.95;;;10.82;;
46493;SDS011;53214;49.314;6.280;2024-03-08T04:10:21;14.10;;;10.95;;
46493;SDS011;53214;49.314;6.280;2024-03-08T04:12:48;15.48;;;11.32;;
46493;SDS011;53214;49.314;6.280;2024-03-08T04:15:15;16.67;;;10.98;;
46493;SDS011;53214;49.314;6.280;2024-03-08T04:17:42;16.00;;;11.27;;
46493;SDS011;53214;49.314;6.280;2024-03-08T04:20:09;14.68;;;11.40;;
46493;SDS011;53214;49.314;6.280;2024-03-08T04:22:37;16.23;;;11.88;;
46493;SDS011;53214;49.314;6.280;2024-03-08T04:25:05;14.98;;;11.40;;
46493;SDS011;53214;49.314;6.280;2024-03-08T04:27:33;14.98;;;11.57;;
46493;SDS011;53214;49.314;6.280;2024-03-08T04:30:01;13.85;;;10.77;;
46493;SDS011;53214;49.314;6.280;2024-03-08T04:32:28;15.13;;;11.13;;
46493;SDS011;53214;49.314;6.280;2024-03-08T04:34:56;15.30;;;10.88;;
46493;SDS011;53214;49.314;6.280;2024-03-08T04:37:23;15.27;;;11.18;;
46493;SDS011;53214;49.314;6.280;2024-03-08T04:39:51;15.95;;;11.88;;
46493;SDS011;53214;49.314;6.280;2024-03-08T04:42:18;17.05;;;11.68;;
46493;SDS011;53214;49.314;6.280;2024-03-08T04:44:45;16.55;;;11.82;;
46493;SDS011;53214;49.314;6.280;2024-03-08T04:47:12;15.73;;;11.50;;
46493;SDS011;53214;49.314;6.280;2024-03-08T04:49:38;16.17;;;11.90;;
46493;SDS011;53214;49.314;6.280;2024-03-08T04:52:05;15.57;;;11.82;;
46493;SDS011;53214;49.314;6.280;2024-03-08T04:54:33;14.45;;;10.75;;
46493;SDS011;53214;49.314;6.280;2024-03-08T04:57:00;13.85;;;10.93;;
46493;SDS011;53214;49.314;6.280;2024-03-08T04:59:32;15.18;;;11.35;;
46493;SDS011;53214;49.314;6.280;2024-03-08T05:01:59;15.32;;;10.90;;
46493;SDS011;53214;49.314;6.280;2024-03-08T05:04:26;15.63;;;10.95;;
46493;SDS011;53214;49.314;6.280;2024-03-08T05:06:52;16.25;;;11.98;;
46493;SDS011;53214;49.314;6.280;2024-03-08T05:09:20;16.73;;;12.38;;
46493;SDS011;53214;49.314;6.280;2024-03-08T05:11:47;14.57;;;11.20;;
46493;SDS011;53214;49.314;6.280;2024-03-08T05:14:14;17.23;;;11.98;;
46493;SDS011;53214;49.314;6.280;2024-03-08T05:16:47;15.32;;;11.38;;
46493;SDS011;53214;49.314;6.280;2024-03-08T05:19:17;16.67;;;12.57;;
46493;SDS011;53214;49.314;6.280;2024-03-08T05:21:45;16.90;;;12.13;;
46493;SDS011;53214;49.314;6.280;2024-03-08T05:24:12;15.13;;;11.70;;
46493;SDS011;53214;49.314;6.280;2024-03-08T05:26:43;15.07;;;11.43;;
46493;SDS011;53214;49.314;6.280;2024-03-08T05:29:10;16.63;;;11.85;;
46493;SDS011;53214;49.314;6.280;2024-03-08T05:31:50;16.75;;;12.35;;
46493;SDS011;53214;49.314;6.280;2024-03-08T05:34:21;16.58;;;12.65;;
46493;SDS011;53214;49.314;6.280;2024-03-08T05:36:49;17.38;;;12.32;;
46493;SDS011;53214;49.314;6.280;2024-03-08T05:39:17;17.15;;;12.73;;
46493;SDS011;53214;49.314;6.280;2024-03-08T05:41:45;18.38;;;13.32;;
46493;SDS011;53214;49.314;6.280;2024-03-08T05:44:12;17.73;;;13.00;;
46493;SDS011;53214;49.314;6.280;2024-03-08T05:46:39;19.42;;;12.95;;
46493;SDS011;53214;49.314;6.280;2024-03-08T05:49:06;17.98;;;12.98;;
46493;SDS011;53214;49.314;6.280;2024-03-08T05:51:37;20.63;;;13.90;;
46493;SDS011;53214;49.314;6.280;2024-03-08T05:54:07;19.77;;;14.07;;
46493;SDS011;53214;49.314;6.280;2024-03-08T05:56:41;21.35;;;14.77;;
46493;SDS011;53214;49.314;6.280;2024-03-08T05:59:10;18.27;;;13.85;;
46493;SDS011;53214;49.314;6.280;2024-03-08T06:01:37;20.80;;;14.02;;
46493;SDS011;53214;49.314;6.280;2024-03-08T06:04:04;18.60;;;13.90;;
46493;SDS011;53214;49.314;6.280;2024-03-08T06:06:31;21.70;;;14.38;;
46493;SDS011;53214;49.314;6.280;2024-03-08T06:08:58;19.58;;;14.20;;
46493;SDS011;53214;49.314;6.280;2024-03-08T06:11:25;19.55;;;14.15;;
46493;SDS011;53214;49.314;6.280;2024-03-08T06:13:58;19.40;;;14.20;;
46493;SDS011;53214;49.314;6.280;2024-03-08T06:16:26;20.73;;;14.13;;
46493;SDS011;53214;49.314;6.280;2024-03-08T06:18:56;20.42;;;14.05;;
46493;SDS011;53214;49.314;6.280;2024-03-08T06:21:24;19.80;;;14.45;;
46493;SDS011;53214;49.314;6.280;2024-03-08T06:23:54;21.40;;;14.80;;
46493;SDS011;53214;49.314;6.280;2024-03-08T06:26:21;19.92;;;14.25;;
46493;SDS011;53214;49.314;6.280;2024-03-08T06:28:48;20.00;;;14.80;;
46493;SDS011;53214;49.314;6.280;2024-03-08T06:31:15;18.73;;;14.50;;
46493;SDS011;53214;49.314;6.280;2024-03-08T06:33:42;18.38;;;14.80;;
46493;SDS011;53214;49.314;6.280;2024-03-08T06:36:09;18.95;;;14.93;;
46493;SDS011;53214;49.314;6.280;2024-03-08T06:38:38;21.90;;;15.75;;
46493;SDS011;53214;49.314;6.280;2024-03-08T06:41:09;20.27;;;14.98;;
46493;SDS011;53214;49.314;6.280;2024-03-08T06:43:45;21.65;;;15.18;;
46493;SDS011;53214;49.314;6.280;2024-03-08T06:46:17;20.65;;;15.48;;
46493;SDS011;53214;49.314;6.280;2024-03-08T06:48:44;22.67;;;15.25;;
46493;SDS011;53214;49.314;6.280;2024-03-08T06:51:16;23.02;;;16.38;;
46493;SDS011;53214;49.314;6.280;2024-03-08T06:53:43;23.90;;;15.38;;
46493;SDS011;53214;49.314;6.280;2024-03-08T06:56:10;21.73;;;16.05;;
46493;SDS011;53214;49.314;6.280;2024-03-08T06:58:37;20.90;;;15.52;;
46493;SDS011;53214;49.314;6.280;2024-03-08T07:01:04;22.85;;;15.73;;
46493;SDS011;53214;49.314;6.280;2024-03-08T07:03:34;20.88;;;16.15;;
46493;SDS011;53214;49.314;6.280;2024-03-08T07:06:01;22.42;;;16.10;;
46493;SDS011;53214;49.314;6.280;2024-03-08T07:08:29;21.20;;;15.20;;
46493;SDS011;53214;49.314;6.280;2024-03-08T07:10:56;23.05;;;16.45;;
46493;SDS011;53214;49.314;6.280;2024-03-08T07:13:25;22.70;;;16.88;;
46493;SDS011;53214;49.314;6.280;2024-03-08T07:15:55;21.15;;;15.40;;
46493;SDS011;53214;49.314;6.280;2024-03-08T07:18:22;21.15;;;15.68;;
46493;SDS011;53214;49.314;6.280;2024-03-08T07:20:49;21.13;;;15.90;;
46493;SDS011;53214;49.314;6.280;2024-03-08T07:23:16;21.58;;;15.45;;
46493;SDS011;53214;49.314;6.280;2024-03-08T07:26:03;22.52;;;16.67;;
46493;SDS011;53214;49.314;6.280;2024-03-08T07:28:30;23.20;;;16.60;;
46493;SDS011;53214;49.314;6.280;2024-03-08T07:30:58;22.60;;;16.75;;
46493;SDS011;53214;49.314;6.280;2024-03-08T07:33:43;24.95;;;16.40;;
46493;SDS011;53214;49.314;6.280;2024-03-08T07:36:11;21.55;;;16.35;;
46493;SDS011;53214;49.314;6.280;2024-03-08T07:38:38;22.67;;;16.13;;
46493;SDS011;53214;49.314;6.280;2024-03-08T07:41:05;20.27;;;16.10;;
46493;SDS011;53214;49.314;6.280;2024-03-08T07:43:31;23.33;;;16.15;;
46493;SDS011;53214;49.314;6.280;2024-03-08T07:46:01;22.98;;;16.42;;
46493;SDS011;53214;49.314;6.280;2024-03-08T07:48:29;23.17;;;16.15;;
46493;SDS011;53214;49.314;6.280;2024-03-08T07:50:57;22.58;;;16.70;;
46493;SDS011;53214;49.314;6.280;2024-03-08T07:53:24;22.63;;;15.93;;
46493;SDS011;53214;49.314;6.280;2024-03-08T07:55:51;22.60;;;15.48;;
46493;SDS011;53214;49.314;6.280;2024-03-08T07:58:18;20.60;;;15.35;;
46493;SDS011;53214;49.314;6.280;2024-03-08T08:00:44;21.38;;;16.08;;
46493;SDS011;53214;49.314;6.280;2024-03-08T08:03:12;22.00;;;16.02;;
46493;SDS011;53214;49.314;6.280;2024-03-08T08:05:39;18.95;;;14.13;;
46493;SDS011;53214;49.314;6.280;2024-03-08T08:08:07;22.40;;;15.07;;
46493;SDS011;53214;49.314;6.280;2024-03-08T08:10:37;19.85;;;14.82;;
46493;SDS011;53214;49.314;6.280;2024-03-08T08:13:04;20.58;;;15.10;;
46493;SDS011;53214;49.314;6.280;2024-03-08T08:15:31;20.33;;;15.68;;
46493;SDS011;53214;49.314;6.280;2024-03-08T08:18:00;21.63;;;15.40;;
46493;SDS011;53214;49.314;6.280;2024-03-08T08:20:29;21.20;;;14.93;;
46493;SDS011;53214;49.314;6.280;2024-03-08T08:22:55;18.77;;;13.98;;
46493;SDS011;53214;49.314;6.280;2024-03-08T08:25:22;22.05;;;15.55;;
46493;SDS011;53214;49.314;6.280;2024-03-08T08:27:51;20.13;;;14.63;;
46493;SDS011;53214;49.314;6.280;2024-03-08T08:30:19;19.92;;;15.05;;
46493;SDS011;53214;49.314;6.280;2024-03-08T08:32:46;19.17;;;14.32;;
46493;SDS011;53214;49.314;6.280;2024-03-08T08:35:15;18.00;;;13.85;;
46493;SDS011;53214;49.314;6.280;2024-03-08T08:37:42;19.40;;;13.77;;
46493;SDS011;53214;49.314;6.280;2024-03-08T08:40:10;20.67;;;14.63;;
46493;SDS011;53214;49.314;6.280;2024-03-08T08:42:41;17.77;;;13.55;;
46493;SDS011;53214;49.314;6.280;2024-03-08T08:45:09;17.60;;;14.10;;
46493;SDS011;53214;49.314;6.280;2024-03-08T08:47:43;20.33;;;14.73;;
46493;SDS011;53214;49.314;6.280;2024-03-08T08:50:12;19.98;;;14.25;;
46493;SDS011;53214;49.314;6.280;2024-03-08T08:52:39;19.65;;;14.35;;
46493;SDS011;53214;49.314;6.280;2024-03-08T08:55:07;22.33;;;14.38;;
46493;SDS011;53214;49.314;6.280;2024-03-08T08:57:34;15.98;;;12.25;;
46493;SDS011;53214;49.314;6.280;2024-03-08T09:00:02;16.80;;;12.50;;
46493;SDS011;53214;49.314;6.280;2024-03-08T09:02:34;18.25;;;13.15;;
46493;SDS011;53214;49.314;6.280;2024-03-08T09:05:01;17.00;;;11.77;;
46493;SDS011;53214;49.314;6.280;2024-03-08T09:07:28;18.27;;;13.57;;
46493;SDS011;53214;49.314;6.280;2024-03-08T09:09:56;16.33;;;12.60;;
46493;SDS011;53214;49.314;6.280;2024-03-08T09:12:24;17.00;;;12.18;;
46493;SDS011;53214;49.314;6.280;2024-03-08T09:14:51;15.95;;;12.52;;
46493;SDS011;53214;49.314;6.280;2024-03-08T09:17:18;15.10;;;11.73;;
46493;SDS011;53214;49.314;6.280;2024-03-08T09:19:47;15.82;;;12.13;;
46493;SDS011;53214;49.314;6.280;2024-03-08T09:22:14;16.15;;;11.88;;
46493;SDS011;53214;49.314;6.280;2024-03-08T09:24:41;17.02;;;12.20;;
46493;SDS011;53214;49.314;6.280;2024-03-08T09:27:12;15.75;;;11.98;;
46493;SDS011;53214;49.314;6.280;2024-03-08T09:29:40;16.10;;;11.73;;
46493;SDS011;53214;49.314;6.280;2024-03-08T09:32:06;15.63;;;11.43;;
46493;SDS011;53214;49.314;6.280;2024-03-08T09:34:33;15.27;;;11.55;;
46493;SDS011;53214;49.314;6.280;2024-03-08T09:37:03;14.75;;;11.27;;
46493;SDS011;53214;49.314;6.280;2024-03-08T09:39:31;16.88;;;10.70;;
46493;SDS011;53214;49.314;6.280;2024-03-08T09:42:00;16.55;;;10.90;;
46493;SDS011;53214;49.314;6.280;2024-03-08T09:44:28;14.48;;;10.88;;
46493;SDS011;53214;49.314;6.280;2024-03-08T09:46:55;13.55;;;11.18;;
46493;SDS011;53214;49.314;6.280;2024-03-08T09:49:24;13.93;;;10.73;;
46493;SDS011;53214;49.314;6.280;2024-03-08T09:51:51;15.63;;;11.43;;
46493;SDS011;53214;49.314;6.280;2024-03-08T09:54:19;14.57;;;10.60;;
46493;SDS011;53214;49.314;6.280;2024-03-08T09:56:51;15.25;;;11.25;;
46493;SDS011;53214;49.314;6.280;2024-03-08T09:59:19;13.52;;;10.95;;
46493;SDS011;53214;49.314;6.280;2024-03-08T10:01:49;13.75;;;10.60;;
46493;SDS011;53214;49.314;6.280;2024-03-08T10:04:16;15.20;;;11.30;;
46493;SDS011;53214;49.314;6.280;2024-03-08T10:06:43;18.33;;;10.60;;
46493;SDS011;53214;49.314;6.280;2024-03-08T10:09:13;12.05;;;10.25;;
46493;SDS011;53214;49.314;6.280;2024-03-08T10:11:40;14.40;;;11.88;;
46493;SDS011;53214;49.314;6.280;2024-03-08T10:14:10;11.93;;;9.32;;
46493;SDS011;53214;49.314;6.280;2024-03-08T10:16:38;13.00;;;10.02;;
46493;SDS011;53214;49.314;6.280;2024-03-08T10:19:06;12.13;;;9.57;;
46493;SDS011;53214;49.314;6.280;2024-03-08T10:21:34;12.63;;;10.07;;
46493;SDS011;53214;49.314;6.280;2024-03-08T10:24:02;12.50;;;9.23;;
46493;SDS011;53214;49.314;6.280;2024-03-08T10:26:29;15.43;;;10.23;;
46493;SDS011;53214;49.314;6.280;2024-03-08T10:28:57;11.73;;;9.40;;
46493;SDS011;53214;49.314;6.280;2024-03-08T10:31:24;12.77;;;9.32;;
46493;SDS011;53214;49.314;6.280;2024-03-08T10:33:52;13.13;;;9.70;;
46493;SDS011;53214;49.314;6.280;2024-03-08T10:36:18;14.35;;;9.88;;
46493;SDS011;53214;49.314;6.280;2024-03-08T10:38:46;14.02;;;9.52;;
46493;SDS011;53214;49.314;6.280;2024-03-08T10:41:14;13.20;;;9.48;;
46493;SDS011;53214;49.314;6.280;2024-03-08T10:43:54;11.73;;;8.80;;
46493;SDS011;53214;49.314;6.280;2024-03-08T10:46:46;10.98;;;8.10;;
46493;SDS011;53214;49.314;6.280;2024-03-08T10:49:17;13.00;;;9.60;;
46493;SDS011;53214;49.314;6.280;2024-03-08T10:51:45;9.57;;;8.23;;
46493;SDS011;53214;49.314;6.280;2024-03-08T10:54:18;12.05;;;8.80;;
46493;SDS011;53214;49.314;6.280;2024-03-08T10:56:47;11.02;;;8.02;;
46493;SDS011;53214;49.314;6.280;2024-03-08T10:59:15;11.45;;;8.30;;
46493;SDS011;53214;49.314;6.280;2024-03-08T11:01:45;11.40;;;8.18;;
46493;SDS011;53214;49.314;6.280;2024-03-08T11:04:13;11.65;;;8.40;;
46493;SDS011;53214;49.314;6.280;2024-03-08T11:06:42;9.18;;;7.55;;
46493;SDS011;53214;49.314;6.280;2024-03-08T11:09:27;10.63;;;7.18;;
46493;SDS011;53214;49.314;6.280;2024-03-08T11:14:58;10.27;;;8.13;;
46493;SDS011;53214;49.314;6.280;2024-03-08T11:19:58;10.27;;;7.13;;
46493;SDS011;53214;49.314;6.280;2024-03-08T11:22:28;10.20;;;7.45;;
46493;SDS011;53214;49.314;6.280;2024-03-08T11:25:01;10.65;;;7.18;;
46493;SDS011;53214;49.314;6.280;2024-03-08T11:27:29;10.80;;;7.75;;
46493;SDS011;53214;49.314;6.280;2024-03-08T11:30:01;11.13;;;7.15;;
46493;SDS011;53214;49.314;6.280;2024-03-08T11:32:44;10.85;;;7.32;;
46493;SDS011;53214;49.314;6.280;2024-03-08T11:35:19;10.10;;;7.50;;
46493;SDS011;53214;49.314;6.280;2024-03-08T11:37:47;11.27;;;7.23;;
46493;SDS011;53214;49.314;6.280;2024-03-08T11:40:15;9.38;;;6.85;;
46493;SDS011;53214;49.314;6.280;2024-03-08T11:42:45;10.30;;;6.72;;
46493;SDS011;53214;49.314;6.280;2024-03-08T11:45:16;11.23;;;6.80;;
46493;SDS011;53214;49.314;6.280;2024-03-08T11:47:44;7.40;;;5.90;;
46493;SDS011;53214;49.314;6.280;2024-03-08T11:50:16;9.98;;;6.68;;
46493;SDS011;53214;49.314;6.280;2024-03-08T11:52:45;9.07;;;6.30;;
46493;SDS011;53214;49.314;6.280;2024-03-08T11:55:12;10.27;;;6.50;;
46493;SDS011;53214;49.314;6.280;2024-03-08T11:57:40;11.98;;;7.20;;
46493;SDS011;53214;49.314;6.280;2024-03-08T12:00:14;9.18;;;6.20;;
46493;SDS011;53214;49.314;6.280;2024-03-08T12:03:02;11.40;;;6.22;;
46493;SDS011;53214;49.314;6.280;2024-03-08T12:05:31;14.23;;;7.18;;
46493;SDS011;53214;49.314;6.280;2024-03-08T12:08:00;12.93;;;7.45;;
46493;SDS011;53214;49.314;6.280;2024-03-08T12:10:28;12.48;;;7.82;;
46493;SDS011;53214;49.314;6.280;2024-03-08T12:12:57;13.73;;;7.10;;
46493;SDS011;53214;49.314;6.280;2024-03-08T12:15:29;10.98;;;7.15;;
46493;SDS011;53214;49.314;6.280;2024-03-08T12:17:59;11.90;;;6.70;;
46493;SDS011;53214;49.314;6.280;2024-03-08T12:20:27;9.63;;;6.40;;
46493;SDS011;53214;49.314;6.280;2024-03-08T12:22:56;10.85;;;6.60;;
46493;SDS011;53214;49.314;6.280;2024-03-08T12:25:27;11.95;;;6.72;;
46493;SDS011;53214;49.314;6.280;2024-03-08T12:28:07;12.77;;;6.40;;
46493;SDS011;53214;49.314;6.280;2024-03-08T12:30:49;9.95;;;6.43;;
46493;SDS011;53214;49.314;6.280;2024-03-08T12:33:19;9.32;;;6.10;;
46493;SDS011;53214;49.314;6.280;2024-03-08T12:35:52;9.23;;;6.03;;
46493;SDS011;53214;49.314;6.280;2024-03-08T12:38:21;9.30;;;6.45;;
46493;SDS011;53214;49.314;6.280;2024-03-08T12:40:57;9.15;;;6.03;;
46493;SDS011;53214;49.314;6.280;2024-03-08T12:43:25;10.38;;;6.28;;
46493;SDS011;53214;49.314;6.280;2024-03-08T12:45:52;9.48;;;5.45;;
46493;SDS011;53214;49.314;6.280;2024-03-08T12:48:20;10.85;;;5.53;;
46493;SDS011;53214;49.314;6.280;2024-03-08T12:50:47;8.40;;;5.20;;
46493;SDS011;53214;49.314;6.280;2024-03-08T12:53:14;9.57;;;5.20;;
46493;SDS011;53214;49.314;6.280;2024-03-08T12:55:41;10.30;;;5.72;;
46493;SDS011;53214;49.314;6.280;2024-03-08T12:58:08;9.18;;;5.10;;
46493;SDS011;53214;49.314;6.280;2024-03-08T13:00:35;9.20;;;5.30;;
46493;SDS011;53214;49.314;6.280;2024-03-08T13:03:03;9.98;;;5.20;;
46493;SDS011;53214;49.314;6.280;2024-03-08T13:05:30;9.70;;;5.05;;
46493;SDS011;53214;49.314;6.280;2024-03-08T13:07:56;10.57;;;5.13;;
46493;SDS011;53214;49.314;6.280;2024-03-08T13:10:24;9.35;;;4.82;;
46493;SDS011;53214;49.314;6.280;2024-03-08T13:12:51;8.13;;;5.28;;
46493;SDS011;53214;49.314;6.280;2024-03-08T13:15:20;9.45;;;5.13;;
46493;SDS011;53214;49.314;6.280;2024-03-08T13:17:47;8.52;;;4.78;;
46493;SDS011;53214;49.314;6.280;2024-03-08T13:20:15;8.23;;;5.30;;
46493;SDS011;53214;49.314;6.280;2024-03-08T13:22:56;9.00;;;5.18;;
46493;SDS011;53214;49.314;6.280;2024-03-08T13:25:25;8.63;;;5.20;;
46493;SDS011;53214;49.314;6.280;2024-03-08T13:27:52;8.65;;;4.60;;
46493;SDS011;53214;49.314;6.280;2024-03-08T13:30:20;9.55;;;5.75;;
46493;SDS011;53214;49.314;6.280;2024-03-08T13:32:51;8.85;;;5.35;;
46493;SDS011;53214;49.314;6.280;2024-03-08T13:35:19;8.27;;;4.90;;
46493;SDS011;53214;49.314;6.280;2024-03-08T13:37:51;11.80;;;5.55;;
46493;SDS011;53214;49.314;6.280;2024-03-08T13:40:18;9.60;;;5.32;;
46493;SDS011;53214;49.314;6.280;2024-03-08T13:42:47;11.63;;;5.75;;
46493;SDS011;53214;49.314;6.280;2024-03-08T13:45:15;9.52;;;5.57;;
46493;SDS011;53214;49.314;6.280;2024-03-08T13:47:50;11.48;;;6.72;;
46493;SDS011;53214;49.314;6.280;2024-03-08T13:50:20;9.38;;;5.55;;
46493;SDS011;53214;49.314;6.280;2024-03-08T13:52:48;10.40;;;6.18;;
46493;SDS011;53214;49.314;6.280;2024-03-08T13:55:22;13.60;;;5.75;;
46493;SDS011;53214;49.314;6.280;2024-03-08T13:57:49;13.68;;;6.63;;
46493;SDS011;53214;49.314;6.280;2024-03-08T14:00:19;9.07;;;5.40;;
46493;SDS011;53214;49.314;6.280;2024-03-08T14:02:49;12.38;;;5.55;;
46493;SDS011;53214;49.314;6.280;2024-03-08T14:05:16;9.48;;;5.30;;
46493;SDS011;53214;49.314;6.280;2024-03-08T14:07:45;9.90;;;5.60;;
46493;SDS011;53214;49.314;6.280;2024-03-08T14:10:15;10.20;;;5.95;;
46493;SDS011;53214;49.314;6.280;2024-03-08T14:12:43;10.55;;;5.50;;
46493;SDS011;53214;49.314;6.280;2024-03-08T14:15:10;10.90;;;5.53;;
46493;SDS011;53214;49.314;6.280;2024-03-08T14:17:38;11.63;;;6.30;;
46493;SDS011;53214;49.314;6.280;2024-03-08T14:20:06;13.05;;;6.97;;
46493;SDS011;53214;49.314;6.280;2024-03-08T14:22:35;12.50;;;5.80;;
46493;SDS011;53214;49.314;6.280;2024-03-08T14:25:02;11.30;;;6.07;;
46493;SDS011;53214;49.314;6.280;2024-03-08T14:27:31;9.80;;;5.40;;
46493;SDS011;53214;49.314;6.280;2024-03-08T14:29:59;8.15;;;5.30;;
46493;SDS011;53214;49.314;6.280;2024-03-08T14:32:26;7.93;;;4.72;;
46493;SDS011;53214;49.314;6.280;2024-03-08T14:34:54;12.18;;;5.93;;
46493;SDS011;53214;49.314;6.280;2024-03-08T14:37:21;10.38;;;6.20;;
46493;SDS011;53214;49.314;6.280;2024-03-08T14:39:54;9.90;;;6.25;;